createdAt,value
2019-03-03T00:01:33.736Z,4.03
2019-03-03T00:03:59.785Z,4.00
2019-03-03T00:06:26.278Z,3.60
2019-03-03T00:08:52.350Z,4.40
2019-03-03T00:11:18.472Z,3.33
2019-03-03T00:13:44.887Z,3.70
2019-03-03T00:16:10.933Z,3.70
2019-03-03T00:18:36.976Z,3.40
2019-03-03T00:21:03.063Z,3.53
2019-03-03T00:23:29.148Z,3.60
2019-03-03T00:25:55.225Z,4.00
2019-03-03T00:28:21.642Z,3.43
2019-03-03T00:30:47.822Z,4.63
2019-03-03T00:33:13.969Z,3.43
2019-03-03T00:35:40.316Z,3.43
2019-03-03T00:38:08.340Z,3.20
2019-03-03T00:40:45.677Z,3.63
2019-03-03T00:43:32.111Z,4.17
2019-03-03T00:46:09.569Z,2.90
2019-03-03T00:48:46.588Z,3.30
2019-03-03T00:51:30.985Z,3.20
2019-03-03T00:54:04.941Z,3.13
2019-03-03T00:56:32.888Z,3.37
2019-03-03T00:59:00.925Z,3.20
2019-03-03T01:01:38.131Z,3.00
2019-03-03T01:04:06.816Z,2.97
2019-03-03T01:06:41.092Z,3.07
2019-03-03T01:09:29.913Z,4.70
2019-03-03T01:12:13.423Z,3.23
2019-03-03T01:14:56.386Z,3.00
2019-03-03T01:17:24.477Z,3.20
2019-03-03T01:20:10.156Z,2.50
2019-03-03T01:22:50.248Z,2.70
2019-03-03T01:25:16.295Z,2.37
2019-03-03T01:27:42.600Z,2.13
2019-03-03T01:30:12.853Z,3.00
2019-03-03T01:32:39.255Z,2.87
2019-03-03T01:35:08.555Z,2.60
2019-03-03T01:37:34.633Z,3.00
2019-03-03T01:40:01.049Z,2.40
2019-03-03T01:42:27.132Z,2.57
2019-03-03T01:44:53.233Z,2.20
2019-03-03T01:47:19.648Z,2.60
2019-03-03T01:49:45.692Z,2.57
2019-03-03T01:52:11.824Z,2.10
2019-03-03T01:54:38.175Z,2.97
2019-03-03T01:57:04.700Z,2.80
2019-03-03T01:59:30.747Z,2.10
2019-03-03T02:01:56.796Z,2.20
2019-03-03T02:04:22.874Z,2.90
2019-03-03T02:06:49.612Z,2.60
2019-03-03T02:09:16.646Z,1.87
2019-03-03T02:11:43.052Z,2.23
2019-03-03T02:14:09.723Z,2.50
2019-03-03T02:16:36.157Z,2.73
2019-03-03T02:19:03.515Z,2.60
2019-03-03T02:21:30.607Z,2.70
2019-03-03T02:23:56.787Z,2.47
2019-03-03T02:26:22.831Z,2.77
2019-03-03T02:28:49.240Z,2.10
2019-03-03T02:31:15.345Z,2.60
2019-03-03T02:33:41.859Z,2.30
2019-03-03T02:36:08.005Z,2.40
2019-03-03T02:38:34.052Z,2.50
2019-03-03T02:41:00.469Z,1.90
2019-03-03T02:43:27.220Z,2.60
2019-03-03T02:45:53.275Z,2.50
2019-03-03T02:48:19.575Z,2.03
2019-03-03T02:50:46.023Z,2.17
2019-03-03T02:53:12.472Z,1.90
2019-03-03T02:55:38.880Z,2.03
2019-03-03T02:58:04.984Z,2.60
2019-03-03T03:00:31.836Z,2.13
2019-03-03T03:02:59.787Z,2.30
2019-03-03T03:05:31.674Z,1.70
2019-03-03T03:08:09.058Z,2.13
2019-03-03T03:10:40.072Z,1.90
2019-03-03T03:13:08.027Z,2.33
2019-03-03T03:15:52.743Z,1.60
2019-03-03T03:18:20.693Z,2.03
2019-03-03T03:20:48.645Z,2.50
2019-03-03T03:23:16.629Z,2.17
2019-03-03T03:26:01.902Z,2.03
2019-03-03T03:28:29.882Z,1.80
2019-03-03T03:31:04.081Z,1.70
2019-03-03T03:33:32.186Z,2.20
2019-03-03T03:36:10.327Z,1.50
2019-03-03T03:38:47.447Z,2.07
2019-03-03T03:41:15.397Z,2.30
2019-03-03T03:43:59.871Z,1.70
2019-03-03T03:46:30.858Z,1.60
2019-03-03T03:49:05.126Z,2.10
2019-03-03T03:51:33.085Z,2.10
2019-03-03T03:54:17.806Z,1.87
2019-03-03T03:56:49.611Z,1.60
2019-03-03T03:59:34.368Z,3.43
2019-03-03T04:02:06.233Z,1.70
2019-03-03T04:04:34.652Z,1.73
2019-03-03T04:07:02.704Z,1.63
2019-03-03T04:09:33.476Z,1.53
2019-03-03T04:12:16.244Z,2.17
2019-03-03T04:14:44.508Z,1.83
2019-03-03T04:17:12.500Z,2.67
2019-03-03T04:19:40.905Z,1.70
2019-03-03T04:22:09.225Z,1.80
2019-03-03T04:24:53.384Z,1.70
2019-03-03T04:27:30.455Z,2.00
2019-03-03T04:30:07.196Z,2.00
2019-03-03T04:32:35.507Z,1.53
2019-03-03T04:35:04.455Z,2.03
2019-03-03T04:37:41.272Z,1.70
2019-03-03T04:40:13.716Z,1.50
2019-03-03T04:42:44.485Z,1.40
2019-03-03T04:45:12.813Z,2.33
2019-03-03T04:47:43.856Z,1.63
2019-03-03T04:50:17.716Z,1.53
2019-03-03T04:52:48.593Z,1.87
2019-03-03T04:55:20.115Z,3.23
2019-03-03T04:58:06.358Z,1.33
2019-03-03T05:00:42.993Z,1.27
2019-03-03T05:03:22.976Z,2.70
2019-03-03T05:06:06.168Z,1.60
2019-03-03T05:08:37.176Z,1.30
2019-03-03T05:11:07.693Z,1.30
2019-03-03T05:13:48.142Z,1.40
2019-03-03T05:16:22.190Z,1.87
2019-03-03T05:18:50.196Z,1.60
2019-03-03T05:21:16.236Z,5.43
2019-03-03T05:23:42.367Z,1.67
2019-03-03T05:26:08.416Z,1.33
2019-03-03T05:28:34.497Z,1.40
2019-03-03T05:31:00.611Z,1.60
2019-03-03T05:33:27.051Z,1.60
2019-03-03T05:35:53.460Z,1.20
2019-03-03T05:38:19.919Z,1.83
2019-03-03T05:40:45.986Z,1.40
2019-03-03T05:43:12.031Z,1.43
2019-03-03T05:45:38.124Z,1.37
2019-03-03T05:48:04.871Z,1.50
2019-03-03T05:50:31.292Z,1.30
2019-03-03T05:52:58.061Z,2.00
2019-03-03T05:55:24.172Z,1.00
2019-03-03T05:57:50.245Z,1.00
2019-03-03T06:00:16.435Z,0.93
2019-03-03T06:02:42.571Z,1.20
2019-03-03T06:05:08.746Z,1.13
2019-03-03T06:07:34.828Z,0.80
2019-03-03T06:10:01.223Z,1.07
2019-03-03T06:12:27.653Z,1.27
2019-03-03T06:14:53.708Z,1.27
2019-03-03T06:17:19.780Z,1.10
2019-03-03T06:19:46.135Z,1.33
2019-03-03T06:22:12.616Z,1.10
2019-03-03T06:24:38.677Z,1.03
2019-03-03T06:27:04.712Z,1.90
2019-03-03T06:29:31.195Z,1.50
2019-03-03T06:31:57.939Z,1.93
2019-03-03T06:34:24.443Z,1.10
2019-03-03T06:36:50.479Z,0.80
2019-03-03T06:39:16.977Z,1.30
2019-03-03T06:41:43.384Z,1.20
2019-03-03T06:44:09.448Z,1.03
2019-03-03T06:46:35.523Z,1.00
2019-03-03T06:49:01.649Z,1.50
2019-03-03T06:51:27.736Z,1.47
2019-03-03T06:53:53.853Z,0.90
2019-03-03T06:56:19.897Z,1.10
2019-03-03T06:58:45.940Z,1.33
2019-03-03T07:01:12.305Z,1.43
2019-03-03T07:03:38.352Z,1.20
2019-03-03T07:06:04.435Z,1.07
2019-03-03T07:08:30.871Z,1.37
2019-03-03T07:10:57.340Z,1.37
2019-03-03T07:13:23.751Z,1.23
2019-03-03T07:15:50.199Z,0.90
2019-03-03T07:18:16.287Z,1.53
2019-03-03T07:20:42.337Z,1.20
2019-03-03T07:23:08.415Z,1.13
2019-03-03T07:25:34.459Z,1.17
2019-03-03T07:28:00.506Z,1.20
2019-03-03T07:30:26.579Z,1.50
2019-03-03T07:33:03.748Z,1.43
2019-03-03T07:35:30.915Z,1.10
2019-03-03T07:37:57.623Z,1.10
2019-03-03T07:40:24.347Z,1.20
2019-03-03T07:42:50.663Z,0.90
2019-03-03T07:45:17.101Z,1.10
2019-03-03T07:47:43.148Z,1.47
2019-03-03T07:50:09.640Z,1.43
2019-03-03T07:52:36.088Z,0.97
2019-03-03T07:55:05.711Z,0.90
2019-03-03T07:57:32.111Z,1.10
2019-03-03T07:59:58.572Z,1.17
2019-03-03T08:02:24.624Z,1.40
2019-03-03T08:04:51.315Z,1.17
2019-03-03T08:07:17.417Z,0.90
2019-03-03T08:09:43.624Z,1.13
2019-03-03T08:12:10.021Z,1.07
2019-03-03T08:14:36.455Z,1.37
2019-03-03T08:17:02.691Z,1.97
2019-03-03T08:19:28.780Z,1.90
2019-03-03T08:21:55.335Z,1.17
2019-03-03T08:24:21.409Z,1.17
2019-03-03T08:26:47.470Z,1.10
2019-03-03T08:29:13.743Z,1.27
2019-03-03T08:31:39.820Z,0.90
2019-03-03T08:34:05.960Z,1.70
2019-03-03T08:36:32.027Z,0.87
2019-03-03T08:38:58.077Z,1.57
2019-03-03T08:41:24.577Z,1.00
2019-03-03T08:43:52.984Z,1.27
2019-03-03T08:46:37.782Z,1.23
2019-03-03T08:49:05.808Z,0.90
2019-03-03T08:51:34.148Z,1.30
2019-03-03T08:54:02.489Z,1.53
2019-03-03T08:56:33.676Z,1.23
2019-03-03T08:59:18.329Z,1.40
2019-03-03T09:01:49.436Z,1.10
2019-03-03T09:04:29.840Z,2.27
2019-03-03T09:07:09.532Z,1.33
2019-03-03T09:09:52.461Z,1.60
2019-03-03T09:12:23.699Z,1.00
2019-03-03T09:15:09.948Z,2.10
2019-03-03T09:17:47.247Z,3.10
2019-03-03T09:20:31.485Z,3.20
2019-03-03T09:22:59.505Z,3.70
2019-03-03T09:25:44.192Z,1.33
2019-03-03T09:28:29.436Z,2.93
2019-03-03T09:31:14.150Z,2.80
2019-03-03T09:33:42.164Z,0.97
2019-03-03T09:36:19.191Z,1.30
2019-03-03T09:38:47.252Z,2.00
2019-03-03T09:41:24.399Z,1.00
2019-03-03T09:44:01.441Z,1.10
2019-03-03T09:46:46.183Z,1.13
2019-03-03T09:49:22.996Z,2.77
2019-03-03T09:52:16.825Z,3.40
2019-03-03T09:55:01.870Z,1.83
2019-03-03T09:57:45.013Z,2.50
2019-03-03T10:00:15.434Z,1.87
2019-03-03T10:02:49.169Z,3.10
2019-03-03T10:05:17.539Z,1.40
2019-03-03T10:07:51.791Z,1.80
2019-03-03T10:10:28.788Z,1.60
2019-03-03T10:13:13.390Z,2.07
2019-03-03T10:15:42.235Z,1.10
2019-03-03T10:18:16.651Z,1.33
2019-03-03T10:20:50.665Z,1.40
2019-03-03T10:23:19.045Z,1.13
2019-03-03T10:26:01.660Z,1.53
2019-03-03T10:28:35.461Z,2.07
2019-03-03T10:31:06.593Z,3.00
2019-03-03T10:33:51.074Z,2.50
2019-03-03T10:36:35.711Z,1.90
2019-03-03T10:39:05.125Z,3.07
2019-03-03T10:41:33.086Z,3.80
2019-03-03T10:44:13.336Z,1.10
2019-03-03T10:46:41.985Z,1.67
2019-03-03T10:49:10.712Z,1.53
2019-03-03T10:51:41.451Z,2.40
2019-03-03T10:54:19.145Z,2.60
2019-03-03T10:57:03.567Z,1.43
2019-03-03T10:59:54.811Z,3.37
2019-03-03T11:02:25.580Z,4.30
2019-03-03T11:04:56.715Z,3.17
2019-03-03T11:07:31.000Z,3.43
2019-03-03T11:10:02.043Z,3.20
2019-03-03T11:12:42.604Z,2.10
2019-03-03T11:15:29.516Z,2.10
2019-03-03T11:18:03.329Z,1.10
2019-03-03T11:20:37.803Z,1.00
2019-03-03T11:23:08.679Z,2.50
2019-03-03T11:25:42.467Z,2.00
2019-03-03T11:28:11.422Z,2.67
2019-03-03T11:30:40.066Z,1.93
2019-03-03T11:33:25.527Z,5.60
2019-03-03T11:35:57.192Z,3.27
2019-03-03T11:38:28.196Z,5.60
2019-03-03T11:41:15.479Z,4.07
2019-03-03T11:43:59.716Z,1.40
2019-03-03T11:46:42.640Z,6.07
2019-03-03T11:49:26.368Z,3.90
2019-03-03T11:51:57.502Z,2.70
2019-03-03T11:54:37.960Z,4.20
2019-03-03T11:57:06.240Z,3.00
2019-03-03T11:59:46.903Z,2.20
2019-03-03T12:02:21.225Z,5.70
2019-03-03T12:05:04.856Z,4.50
2019-03-03T12:07:49.330Z,5.07
2019-03-03T12:10:35.091Z,1.50
2019-03-03T12:13:09.623Z,2.20
2019-03-03T12:15:46.504Z,3.80
2019-03-03T12:18:20.606Z,2.20
2019-03-03T12:20:49.187Z,3.27
2019-03-03T12:23:17.524Z,6.07
2019-03-03T12:25:57.218Z,3.33
2019-03-03T12:28:41.664Z,3.03
2019-03-03T12:31:13.699Z,3.07
2019-03-03T12:33:44.339Z,2.70
2019-03-03T12:36:19.392Z,3.40
2019-03-03T12:39:03.953Z,2.03
2019-03-03T12:41:43.796Z,1.70
2019-03-03T12:44:15.071Z,2.03
2019-03-03T12:46:48.896Z,2.90
2019-03-03T12:49:32.244Z,3.17
2019-03-03T12:52:00.257Z,1.50
2019-03-03T12:54:34.663Z,2.57
2019-03-03T12:57:05.124Z,3.73
2019-03-03T12:59:41.972Z,2.27
2019-03-03T13:02:19.497Z,3.07
2019-03-03T13:05:05.557Z,2.37
2019-03-03T13:07:36.153Z,3.73
2019-03-03T13:10:10.810Z,3.33
2019-03-03T13:12:50.903Z,2.40
2019-03-03T13:15:18.999Z,2.23
2019-03-03T13:17:52.487Z,2.60
2019-03-03T13:20:20.449Z,5.03
2019-03-03T13:22:48.773Z,3.60
2019-03-03T13:25:16.849Z,2.60
2019-03-03T13:27:45.095Z,7.17
2019-03-03T13:30:15.161Z,2.07
2019-03-03T13:32:46.648Z,8.27
2019-03-03T13:35:17.932Z,7.20
2019-03-03T13:37:48.547Z,18.33
2019-03-03T13:40:19.003Z,8.20
2019-03-03T13:42:49.724Z,10.60
2019-03-03T13:45:16.203Z,7.90
2019-03-03T13:47:43.119Z,9.60
2019-03-03T13:50:11.331Z,11.87
2019-03-03T13:52:37.939Z,6.93
2019-03-03T13:55:06.251Z,16.53
2019-03-03T13:57:32.856Z,5.07
2019-03-03T13:59:59.268Z,8.97
2019-03-03T14:02:25.847Z,5.83
2019-03-03T14:04:52.260Z,8.33
2019-03-03T14:07:18.308Z,8.10
2019-03-03T14:09:45.902Z,10.70
2019-03-03T14:12:11.944Z,6.10
2019-03-03T14:14:38.355Z,6.77
2019-03-03T14:17:04.482Z,10.43
2019-03-03T14:19:30.600Z,7.10
2019-03-03T14:21:57.039Z,5.50
2019-03-03T14:24:23.093Z,4.90
2019-03-03T14:26:49.296Z,6.80
2019-03-03T14:29:15.619Z,3.90
2019-03-03T14:31:42.839Z,2.93
2019-03-03T14:34:09.338Z,5.93
2019-03-03T14:36:35.486Z,5.93
2019-03-03T14:39:01.862Z,5.07
2019-03-03T14:41:28.275Z,5.33
2019-03-03T14:43:55.032Z,4.07
2019-03-03T14:46:22.523Z,5.73
2019-03-03T14:48:48.662Z,5.10
2019-03-03T14:51:14.713Z,2.90
2019-03-03T14:53:41.069Z,4.50
2019-03-03T14:56:07.111Z,3.53
2019-03-03T14:58:33.215Z,3.67
2019-03-03T15:00:59.698Z,3.07
2019-03-03T15:03:25.744Z,2.53
2019-03-03T15:05:51.787Z,3.77
2019-03-03T15:08:18.281Z,6.13
2019-03-03T15:10:44.684Z,4.83
2019-03-03T15:13:10.927Z,5.30
2019-03-03T15:15:39.073Z,3.90
2019-03-03T15:18:06.621Z,3.17
2019-03-03T15:20:32.681Z,4.10
2019-03-03T15:22:59.481Z,4.20
2019-03-03T15:25:25.604Z,2.37
2019-03-03T15:27:51.752Z,5.90
2019-03-03T15:30:20.498Z,2.73
2019-03-03T15:32:47.971Z,4.90
2019-03-03T15:35:15.387Z,4.60
2019-03-03T15:37:41.864Z,6.30
2019-03-03T15:40:13.326Z,2.60
2019-03-03T15:42:40.839Z,3.70
2019-03-03T15:45:13.652Z,3.20
2019-03-03T15:47:40.168Z,4.50
2019-03-03T15:50:08.327Z,2.67
2019-03-03T15:52:35.104Z,3.50
2019-03-03T15:55:01.157Z,2.80
2019-03-03T15:57:27.564Z,2.10
2019-03-03T15:59:53.613Z,3.10
2019-03-03T16:02:19.722Z,4.90
2019-03-03T16:04:46.136Z,6.90
2019-03-03T16:07:12.568Z,3.27
2019-03-03T16:09:38.676Z,4.53
2019-03-03T16:12:05.107Z,2.40
2019-03-03T16:14:31.219Z,3.33
2019-03-03T16:16:57.324Z,1.93
2019-03-03T16:19:23.477Z,2.60
2019-03-03T16:21:50.345Z,2.03
2019-03-03T16:24:16.392Z,2.30
2019-03-03T16:26:42.452Z,2.37
2019-03-03T16:29:08.820Z,1.70
2019-03-03T16:31:35.329Z,3.60
2019-03-03T16:34:01.382Z,1.67
2019-03-03T16:36:27.873Z,2.70
2019-03-03T16:38:54.283Z,3.20
2019-03-03T16:41:20.672Z,1.63
2019-03-03T16:43:46.771Z,4.27
2019-03-03T16:46:13.063Z,2.27
2019-03-03T16:48:39.987Z,5.37
2019-03-03T16:51:06.404Z,3.30
2019-03-03T16:53:32.845Z,1.80
2019-03-03T16:55:59.167Z,2.77
2019-03-03T16:58:25.582Z,1.73
2019-03-03T17:00:51.688Z,2.83
2019-03-03T17:03:18.360Z,1.60
2019-03-03T17:05:44.828Z,3.10
2019-03-03T17:08:10.932Z,1.93
2019-03-03T17:10:37.244Z,14.33
2019-03-03T17:13:03.393Z,3.23
2019-03-03T17:15:29.932Z,6.50
2019-03-03T17:17:55.984Z,3.20
2019-03-03T17:20:22.768Z,4.80
2019-03-03T17:22:49.226Z,3.03
2019-03-03T17:25:23.485Z,3.30
2019-03-03T17:27:50.156Z,2.93
2019-03-03T17:30:19.463Z,2.30
2019-03-03T17:32:46.196Z,3.53
2019-03-03T17:35:13.652Z,2.97
2019-03-03T17:37:40.067Z,6.00
2019-03-03T17:40:12.292Z,1.97
2019-03-03T17:42:38.684Z,3.10
2019-03-03T17:45:07.005Z,3.33
2019-03-03T17:47:33.396Z,2.40
2019-03-03T17:49:59.814Z,4.00
2019-03-03T17:52:25.944Z,2.70
2019-03-03T17:54:52.276Z,9.30
2019-03-03T17:57:18.710Z,3.30
2019-03-03T17:59:45.124Z,4.97
2019-03-03T18:02:11.168Z,4.27
2019-03-03T18:04:37.644Z,2.73
2019-03-03T18:07:03.687Z,5.40
2019-03-03T18:09:30.057Z,2.43
2019-03-03T18:11:56.584Z,2.00
2019-03-03T18:14:22.917Z,3.00
2019-03-03T18:16:49.097Z,2.30
2019-03-03T18:19:15.781Z,2.33
2019-03-03T18:21:42.107Z,3.00
2019-03-03T18:24:08.208Z,2.83
2019-03-03T18:26:34.619Z,3.17
2019-03-03T18:29:00.726Z,7.93
2019-03-03T18:31:27.135Z,9.30
2019-03-03T18:33:53.184Z,3.83
2019-03-03T18:36:19.283Z,6.07
2019-03-03T18:38:46.009Z,5.37
2019-03-03T18:41:12.116Z,7.30
2019-03-03T18:43:38.463Z,14.53
2019-03-03T18:46:05.891Z,18.47
2019-03-03T18:48:32.964Z,12.20
2019-03-03T18:50:59.024Z,14.00
2019-03-03T18:53:25.496Z,10.77
2019-03-03T18:55:51.863Z,13.03
2019-03-03T18:58:17.965Z,11.80
2019-03-03T19:00:44.641Z,9.57
2019-03-03T19:03:11.058Z,14.77
2019-03-03T19:05:37.505Z,10.83
2019-03-03T19:08:03.728Z,6.80
2019-03-03T19:10:32.391Z,6.60
2019-03-03T19:12:58.441Z,11.50
2019-03-03T19:15:25.563Z,6.50
2019-03-03T19:17:51.740Z,5.20
2019-03-03T19:20:20.405Z,6.23
2019-03-03T19:22:48.852Z,7.13
2019-03-03T19:25:16.127Z,8.43
2019-03-03T19:27:42.309Z,13.63
2019-03-03T19:30:20.821Z,5.60
2019-03-03T19:32:50.673Z,6.53
2019-03-03T19:35:17.197Z,5.47
2019-03-03T19:37:43.248Z,6.27
2019-03-03T19:40:11.287Z,5.47
2019-03-03T19:42:37.395Z,4.90
2019-03-03T19:45:13.576Z,5.50
2019-03-03T19:47:39.680Z,5.57
2019-03-03T19:50:08.017Z,5.00
2019-03-03T19:52:34.064Z,8.00
2019-03-03T19:55:00.319Z,4.53
2019-03-03T19:57:26.655Z,6.40
2019-03-03T19:59:53.089Z,6.10
2019-03-03T20:02:19.140Z,5.77
2019-03-03T20:04:45.623Z,4.43
2019-03-03T20:07:12.041Z,5.33
2019-03-03T20:09:38.092Z,4.63
2019-03-03T20:12:04.200Z,6.00
2019-03-03T20:14:30.556Z,4.70
2019-03-03T20:16:56.603Z,7.37
2019-03-03T20:19:23.113Z,4.60
2019-03-03T20:21:49.401Z,6.50
2019-03-03T20:24:15.771Z,5.53
2019-03-03T20:26:42.107Z,5.83
2019-03-03T20:29:08.449Z,6.40
2019-03-03T20:31:34.539Z,5.67
2019-03-03T20:34:01.297Z,6.00
2019-03-03T20:36:27.350Z,6.17
2019-03-03T20:38:53.435Z,5.37
2019-03-03T20:41:19.846Z,6.13
2019-03-03T20:43:45.997Z,5.63
2019-03-03T20:46:12.095Z,5.43
2019-03-03T20:48:38.547Z,5.43
2019-03-03T20:51:05.305Z,7.00
2019-03-03T20:53:31.356Z,5.57
2019-03-03T20:55:57.752Z,5.60
2019-03-03T20:58:24.174Z,6.90
2019-03-03T21:00:50.585Z,6.83
2019-03-03T21:03:16.672Z,6.43
2019-03-03T21:05:43.087Z,6.67
2019-03-03T21:08:09.188Z,6.80
2019-03-03T21:10:35.232Z,6.40
2019-03-03T21:13:01.281Z,6.43
2019-03-03T21:15:28.331Z,8.40
2019-03-03T21:17:54.427Z,6.40
2019-03-03T21:20:21.877Z,6.50
2019-03-03T21:22:48.323Z,7.07
2019-03-03T21:25:15.739Z,6.50
2019-03-03T21:27:42.248Z,6.07
2019-03-03T21:30:10.875Z,6.27
2019-03-03T21:32:37.308Z,6.40
2019-03-03T21:35:05.685Z,6.03
2019-03-03T21:37:31.730Z,5.50
2019-03-03T21:39:57.840Z,6.33
2019-03-03T21:42:23.890Z,6.87
2019-03-03T21:44:50.360Z,6.13
2019-03-03T21:47:16.414Z,5.90
2019-03-03T21:49:42.749Z,5.73
2019-03-03T21:52:08.843Z,5.70
2019-03-03T21:54:35.256Z,6.53
2019-03-03T21:57:01.384Z,5.93
2019-03-03T21:59:27.430Z,5.47
2019-03-03T22:01:53.540Z,6.50
2019-03-03T22:04:19.643Z,5.70
2019-03-03T22:06:45.692Z,6.23
2019-03-03T22:09:12.849Z,6.47
2019-03-03T22:11:38.949Z,7.73
2019-03-03T22:14:05.631Z,5.77
2019-03-03T22:16:32.118Z,5.03
2019-03-03T22:18:58.286Z,5.93
2019-03-03T22:21:24.624Z,5.43
2019-03-03T22:23:51.359Z,5.60
2019-03-03T22:26:17.406Z,5.30
2019-03-03T22:28:43.484Z,6.00
2019-03-03T22:31:09.928Z,5.23
2019-03-03T22:33:35.972Z,5.20
2019-03-03T22:36:02.051Z,5.63
2019-03-03T22:38:28.100Z,5.00
2019-03-03T22:40:54.440Z,6.00
2019-03-03T22:43:20.885Z,7.30
2019-03-03T22:45:46.972Z,6.00
2019-03-03T22:48:13.020Z,5.40
2019-03-03T22:50:39.068Z,5.90
2019-03-03T22:53:05.788Z,5.97
2019-03-03T22:55:35.305Z,6.00
2019-03-03T22:58:01.616Z,6.50
2019-03-03T23:00:45.670Z,5.90
2019-03-03T23:03:15.524Z,6.43
2019-03-03T23:05:57.321Z,8.23
2019-03-03T23:08:30.185Z,6.43
2019-03-03T23:11:00.034Z,6.33
2019-03-03T23:13:32.692Z,6.07
2019-03-03T23:16:15.065Z,6.83
2019-03-03T23:19:18.361Z,6.23
2019-03-03T23:22:03.716Z,5.73
2019-03-03T23:24:50.341Z,6.07
2019-03-03T23:27:16.965Z,6.10
2019-03-03T23:29:43.008Z,5.73
2019-03-03T23:32:09.092Z,6.07
2019-03-03T23:34:35.185Z,6.10
2019-03-03T23:37:01.899Z,6.23
2019-03-03T23:39:28.031Z,5.27
2019-03-03T23:41:54.424Z,5.47
2019-03-03T23:44:20.840Z,6.30
2019-03-03T23:46:46.921Z,5.47
2019-03-03T23:49:14.563Z,5.47
2019-03-03T23:51:41.301Z,5.97
2019-03-03T23:54:07.353Z,5.80
2019-03-03T23:56:33.413Z,5.73
2019-03-03T23:58:59.758Z,5.67
